sensor_id;sensor_type;location;lat;lon;timestamp;P1;durP1;ratioP1;P2;durP2;ratioP2
23952;SDS011;12163;49.316;6.092;2023-07-20T00:31:38;5.95;;;2.38;;
23952;SDS011;12163;49.316;6.092;2023-07-20T00:34:05;10.25;;;2.40;;
23952;SDS011;12163;49.316;6.092;2023-07-20T00:36:32;9.27;;;2.30;;
23952;SDS011;12163;49.316;6.092;2023-07-20T00:38:59;8.15;;;2.60;;
23952;SDS011;12163;49.316;6.092;2023-07-20T00:41:25;6.13;;;2.43;;
23952;SDS011;12163;49.316;6.092;2023-07-20T00:43:55;4.80;;;2.33;;
23952;SDS011;12163;49.316;6.092;2023-07-20T00:46:22;6.35;;;2.40;;
23952;SDS011;12163;49.316;6.092;2023-07-20T00:48:53;6.72;;;2.70;;
23952;SDS011;12163;49.316;6.092;2023-07-20T00:51:21;6.30;;;2.30;;
23952;SDS011;12163;49.316;6.092;2023-07-20T00:53:49;7.23;;;2.23;;
23952;SDS011;12163;49.316;6.092;2023-07-20T00:56:16;7.20;;;2.58;;
23952;SDS011;12163;49.316;6.092;2023-07-20T00:58:43;8.57;;;2.58;;
23952;SDS011;12163;49.316;6.092;2023-07-20T01:01:10;10.57;;;3.00;;
23952;SDS011;12163;49.316;6.092;2023-07-20T01:03:37;6.53;;;2.70;;
23952;SDS011;12163;49.316;6.092;2023-07-20T01:11:52;8.48;;;2.65;;
23952;SDS011;12163;49.316;6.092;2023-07-20T01:14:04;6.32;;;2.70;;
23952;SDS011;12163;49.316;6.092;2023-07-20T01:16:32;9.98;;;2.80;;
23952;SDS011;12163;49.316;6.092;2023-07-20T01:18:59;8.73;;;2.63;;
23952;SDS011;12163;49.316;6.092;2023-07-20T01:33:01;6.10;;;2.55;;
23952;SDS011;12163;49.316;6.092;2023-07-20T01:35:29;7.45;;;2.78;;
23952;SDS011;12163;49.316;6.092;2023-07-20T01:37:58;5.63;;;2.57;;
23952;SDS011;12163;49.316;6.092;2023-07-20T01:40:25;12.00;;;2.65;;
23952;SDS011;12163;49.316;6.092;2023-07-20T01:42:53;5.40;;;2.50;;
23952;SDS011;12163;49.316;6.092;2023-07-20T01:45:20;6.27;;;2.37;;
23952;SDS011;12163;49.316;6.092;2023-07-20T01:47:47;6.70;;;2.80;;
23952;SDS011;12163;49.316;6.092;2023-07-20T01:50:13;7.22;;;2.50;;
23952;SDS011;12163;49.316;6.092;2023-07-20T01:52:40;6.37;;;2.50;;
23952;SDS011;12163;49.316;6.092;2023-07-20T01:55:06;6.53;;;2.40;;
23952;SDS011;12163;49.316;6.092;2023-07-20T01:57:33;5.95;;;2.53;;
23952;SDS011;12163;49.316;6.092;2023-07-20T02:00:00;7.97;;;2.42;;
23952;SDS011;12163;49.316;6.092;2023-07-20T02:02:27;4.88;;;2.20;;
23952;SDS011;12163;49.316;6.092;2023-07-20T02:04:57;9.68;;;2.70;;
23952;SDS011;12163;49.316;6.092;2023-07-20T02:07:23;6.82;;;2.70;;
23952;SDS011;12163;49.316;6.092;2023-07-20T02:09:50;7.27;;;2.40;;
23952;SDS011;12163;49.316;6.092;2023-07-20T02:12:17;9.32;;;2.70;;
23952;SDS011;12163;49.316;6.092;2023-07-20T02:14:43;6.25;;;2.60;;
23952;SDS011;12163;49.316;6.092;2023-07-20T02:17:10;6.70;;;2.38;;
23952;SDS011;12163;49.316;6.092;2023-07-20T02:19:37;9.65;;;2.70;;
23952;SDS011;12163;49.316;6.092;2023-07-20T02:22:04;11.23;;;2.80;;
23952;SDS011;12163;49.316;6.092;2023-07-20T02:24:32;7.90;;;2.55;;
23952;SDS011;12163;49.316;6.092;2023-07-20T02:26:59;10.15;;;2.40;;
23952;SDS011;12163;49.316;6.092;2023-07-20T02:39:12;8.77;;;3.15;;
23952;SDS011;12163;49.316;6.092;2023-07-20T02:41:39;3.15;;;1.90;;
23952;SDS011;12163;49.316;6.092;2023-07-20T02:44:05;9.88;;;2.70;;
23952;SDS011;12163;49.316;6.092;2023-07-20T02:46:32;8.43;;;2.35;;
23952;SDS011;12163;49.316;6.092;2023-07-20T02:48:59;7.13;;;2.47;;
23952;SDS011;12163;49.316;6.092;2023-07-20T02:51:25;5.68;;;2.35;;
23952;SDS011;12163;49.316;6.092;2023-07-20T02:53:52;8.75;;;2.50;;
23952;SDS011;12163;49.316;6.092;2023-07-20T02:56:18;8.90;;;2.05;;
23952;SDS011;12163;49.316;6.092;2023-07-20T02:58:45;6.20;;;2.47;;
23952;SDS011;12163;49.316;6.092;2023-07-20T03:01:12;6.13;;;2.25;;
23952;SDS011;12163;49.316;6.092;2023-07-20T03:03:39;6.50;;;2.88;;
23952;SDS011;12163;49.316;6.092;2023-07-20T03:06:06;5.57;;;2.53;;
23952;SDS011;12163;49.316;6.092;2023-07-20T03:08:35;5.68;;;2.25;;
23952;SDS011;12163;49.316;6.092;2023-07-20T03:11:02;4.68;;;2.30;;
23952;SDS011;12163;49.316;6.092;2023-07-20T03:13:29;14.30;;;2.70;;
23952;SDS011;12163;49.316;6.092;2023-07-20T03:15:56;8.20;;;2.40;;
23952;SDS011;12163;49.316;6.092;2023-07-20T03:18:22;7.85;;;2.70;;
23952;SDS011;12163;49.316;6.092;2023-07-20T03:20:49;6.70;;;2.72;;
23952;SDS011;12163;49.316;6.092;2023-07-20T03:23:15;7.35;;;2.30;;
23952;SDS011;12163;49.316;6.092;2023-07-20T03:25:43;8.13;;;2.83;;
23952;SDS011;12163;49.316;6.092;2023-07-20T03:28:09;10.85;;;2.50;;
23952;SDS011;12163;49.316;6.092;2023-07-20T03:30:36;5.70;;;2.58;;
23952;SDS011;12163;49.316;6.092;2023-07-20T03:33:03;7.45;;;2.92;;
23952;SDS011;12163;49.316;6.092;2023-07-20T03:35:30;6.97;;;2.55;;
23952;SDS011;12163;49.316;6.092;2023-07-20T03:37:57;10.40;;;2.72;;
23952;SDS011;12163;49.316;6.092;2023-07-20T03:40:24;8.93;;;2.72;;
23952;SDS011;12163;49.316;6.092;2023-07-20T03:42:51;9.00;;;2.60;;
23952;SDS011;12163;49.316;6.092;2023-07-20T03:45:18;8.52;;;2.53;;
23952;SDS011;12163;49.316;6.092;2023-07-20T03:47:44;9.68;;;3.35;;
23952;SDS011;12163;49.316;6.092;2023-07-20T03:50:11;7.93;;;3.20;;
23952;SDS011;12163;49.316;6.092;2023-07-20T03:52:38;7.55;;;3.22;;
23952;SDS011;12163;49.316;6.092;2023-07-20T03:55:04;10.63;;;3.30;;
23952;SDS011;12163;49.316;6.092;2023-07-20T03:57:32;8.30;;;3.15;;
23952;SDS011;12163;49.316;6.092;2023-07-20T03:59:59;11.32;;;3.15;;
23952;SDS011;12163;49.316;6.092;2023-07-20T04:02:26;8.95;;;3.13;;
23952;SDS011;12163;49.316;6.092;2023-07-20T04:04:53;6.57;;;3.33;;
23952;SDS011;12163;49.316;6.092;2023-07-20T04:07:19;5.43;;;2.40;;
23952;SDS011;12163;49.316;6.092;2023-07-20T04:09:46;12.85;;;3.53;;
23952;SDS011;12163;49.316;6.092;2023-07-20T04:12:12;7.60;;;2.97;;
23952;SDS011;12163;49.316;6.092;2023-07-20T04:14:39;12.77;;;3.17;;
23952;SDS011;12163;49.316;6.092;2023-07-20T04:17:06;13.30;;;4.40;;
23952;SDS011;12163;49.316;6.092;2023-07-20T04:19:32;10.43;;;3.10;;
23952;SDS011;12163;49.316;6.092;2023-07-20T04:21:59;8.63;;;3.05;;
23952;SDS011;12163;49.316;6.092;2023-07-20T04:24:25;7.82;;;3.10;;
23952;SDS011;12163;49.316;6.092;2023-07-20T04:26:52;8.60;;;2.72;;
23952;SDS011;12163;49.316;6.092;2023-07-20T04:29:19;9.48;;;3.50;;
23952;SDS011;12163;49.316;6.092;2023-07-20T04:31:45;8.07;;;2.60;;
23952;SDS011;12163;49.316;6.092;2023-07-20T04:34:12;8.43;;;2.75;;
23952;SDS011;12163;49.316;6.092;2023-07-20T04:36:38;9.38;;;3.03;;
23952;SDS011;12163;49.316;6.092;2023-07-20T04:39:05;7.80;;;2.95;;
23952;SDS011;12163;49.316;6.092;2023-07-20T04:41:51;6.97;;;2.92;;
23952;SDS011;12163;49.316;6.092;2023-07-20T04:44:17;10.93;;;2.70;;
23952;SDS011;12163;49.316;6.092;2023-07-20T04:46:44;7.20;;;3.20;;
23952;SDS011;12163;49.316;6.092;2023-07-20T04:49:12;6.70;;;2.40;;
23952;SDS011;12163;49.316;6.092;2023-07-20T04:51:39;6.63;;;2.72;;
23952;SDS011;12163;49.316;6.092;2023-07-20T04:54:06;6.35;;;2.70;;
23952;SDS011;12163;49.316;6.092;2023-07-20T04:56:32;5.68;;;2.20;;
23952;SDS011;12163;49.316;6.092;2023-07-20T04:58:59;10.70;;;2.75;;
23952;SDS011;12163;49.316;6.092;2023-07-20T05:01:26;8.60;;;3.00;;
23952;SDS011;12163;49.316;6.092;2023-07-20T05:03:53;9.13;;;2.58;;
23952;SDS011;12163;49.316;6.092;2023-07-20T05:06:20;6.93;;;2.85;;
23952;SDS011;12163;49.316;6.092;2023-07-20T05:08:47;6.80;;;2.65;;
23952;SDS011;12163;49.316;6.092;2023-07-20T05:11:14;5.03;;;2.35;;
23952;SDS011;12163;49.316;6.092;2023-07-20T05:13:41;6.68;;;2.70;;
23952;SDS011;12163;49.316;6.092;2023-07-20T05:16:07;4.50;;;2.50;;
23952;SDS011;12163;49.316;6.092;2023-07-20T05:18:34;7.32;;;2.75;;
23952;SDS011;12163;49.316;6.092;2023-07-20T05:21:01;9.43;;;2.63;;
23952;SDS011;12163;49.316;6.092;2023-07-20T05:23:27;6.82;;;2.28;;
23952;SDS011;12163;49.316;6.092;2023-07-20T05:25:54;7.75;;;2.53;;
23952;SDS011;12163;49.316;6.092;2023-07-20T05:28:23;6.85;;;2.38;;
23952;SDS011;12163;49.316;6.092;2023-07-20T05:30:50;8.55;;;2.42;;
23952;SDS011;12163;49.316;6.092;2023-07-20T05:33:19;7.38;;;2.03;;
23952;SDS011;12163;49.316;6.092;2023-07-20T05:35:48;7.35;;;2.35;;
23952;SDS011;12163;49.316;6.092;2023-07-20T05:38:15;8.40;;;2.30;;
23952;SDS011;12163;49.316;6.092;2023-07-20T05:40:43;14.70;;;2.75;;
23952;SDS011;12163;49.316;6.092;2023-07-20T05:43:10;6.97;;;2.50;;
23952;SDS011;12163;49.316;6.092;2023-07-20T05:45:37;9.52;;;2.60;;
23952;SDS011;12163;49.316;6.092;2023-07-20T05:48:08;5.30;;;2.10;;
23952;SDS011;12163;49.316;6.092;2023-07-20T05:50:38;6.18;;;2.38;;
23952;SDS011;12163;49.316;6.092;2023-07-20T05:53:08;5.80;;;2.35;;
23952;SDS011;12163;49.316;6.092;2023-07-20T05:55:34;10.20;;;2.50;;
23952;SDS011;12163;49.316;6.092;2023-07-20T05:58:01;9.32;;;2.25;;
23952;SDS011;12163;49.316;6.092;2023-07-20T06:00:30;10.70;;;2.42;;
23952;SDS011;12163;49.316;6.092;2023-07-20T06:02:57;7.18;;;2.00;;
23952;SDS011;12163;49.316;6.092;2023-07-20T06:05:24;7.22;;;2.50;;
23952;SDS011;12163;49.316;6.092;2023-07-20T06:07:54;7.95;;;2.40;;
23952;SDS011;12163;49.316;6.092;2023-07-20T06:10:21;9.63;;;2.08;;
23952;SDS011;12163;49.316;6.092;2023-07-20T06:12:48;7.68;;;2.20;;
23952;SDS011;12163;49.316;6.092;2023-07-20T06:15:48;7.90;;;2.30;;
23952;SDS011;12163;49.316;6.092;2023-07-20T06:18:08;6.95;;;2.60;;
23952;SDS011;12163;49.316;6.092;2023-07-20T06:20:35;9.52;;;2.35;;
23952;SDS011;12163;49.316;6.092;2023-07-20T06:23:01;7.05;;;2.60;;
23952;SDS011;12163;49.316;6.092;2023-07-20T06:25:28;6.38;;;2.10;;
23952;SDS011;12163;49.316;6.092;2023-07-20T06:27:55;7.53;;;2.63;;
23952;SDS011;12163;49.316;6.092;2023-07-20T06:30:22;10.40;;;2.40;;
23952;SDS011;12163;49.316;6.092;2023-07-20T06:32:49;9.27;;;2.63;;
23952;SDS011;12163;49.316;6.092;2023-07-20T06:35:17;5.80;;;2.35;;
23952;SDS011;12163;49.316;6.092;2023-07-20T06:37:44;5.78;;;2.00;;
23952;SDS011;12163;49.316;6.092;2023-07-20T06:40:10;6.63;;;2.30;;
23952;SDS011;12163;49.316;6.092;2023-07-20T06:42:40;6.28;;;2.15;;
23952;SDS011;12163;49.316;6.092;2023-07-20T06:45:10;5.90;;;2.00;;
23952;SDS011;12163;49.316;6.092;2023-07-20T06:47:38;4.38;;;1.90;;
23952;SDS011;12163;49.316;6.092;2023-07-20T06:52:42;8.13;;;2.13;;
23952;SDS011;12163;49.316;6.092;2023-07-20T06:55:09;5.78;;;1.80;;
23952;SDS011;12163;49.316;6.092;2023-07-20T06:57:36;7.10;;;2.30;;
23952;SDS011;12163;49.316;6.092;2023-07-20T07:00:02;4.70;;;2.20;;
23952;SDS011;12163;49.316;6.092;2023-07-20T07:02:30;5.05;;;2.10;;
23952;SDS011;12163;49.316;6.092;2023-07-20T07:04:57;7.10;;;2.00;;
23952;SDS011;12163;49.316;6.092;2023-07-20T07:07:44;6.57;;;2.70;;
23952;SDS011;12163;49.316;6.092;2023-07-20T07:10:10;11.82;;;2.20;;
23952;SDS011;12163;49.316;6.092;2023-07-20T07:12:37;6.85;;;2.25;;
23952;SDS011;12163;49.316;6.092;2023-07-20T07:15:04;7.15;;;2.05;;
23952;SDS011;12163;49.316;6.092;2023-07-20T07:17:32;8.18;;;2.65;;
23952;SDS011;12163;49.316;6.092;2023-07-20T07:20:00;7.55;;;2.55;;
23952;SDS011;12163;49.316;6.092;2023-07-20T07:22:26;10.32;;;2.25;;
23952;SDS011;12163;49.316;6.092;2023-07-20T07:24:53;7.10;;;2.15;;
23952;SDS011;12163;49.316;6.092;2023-07-20T07:27:20;6.28;;;2.40;;
23952;SDS011;12163;49.316;6.092;2023-07-20T07:29:46;8.02;;;2.28;;
23952;SDS011;12163;49.316;6.092;2023-07-20T07:32:14;8.15;;;2.50;;
23952;SDS011;12163;49.316;6.092;2023-07-20T07:34:43;7.00;;;2.10;;
23952;SDS011;12163;49.316;6.092;2023-07-20T07:37:13;5.28;;;2.45;;
23952;SDS011;12163;49.316;6.092;2023-07-20T07:39:40;5.95;;;2.10;;
23952;SDS011;12163;49.316;6.092;2023-07-20T07:42:06;6.00;;;2.38;;
23952;SDS011;12163;49.316;6.092;2023-07-20T07:44:33;7.38;;;1.92;;
23952;SDS011;12163;49.316;6.092;2023-07-20T07:46:59;10.30;;;2.42;;
23952;SDS011;12163;49.316;6.092;2023-07-20T07:49:26;8.20;;;2.30;;
23952;SDS011;12163;49.316;6.092;2023-07-20T07:51:54;5.30;;;2.00;;
23952;SDS011;12163;49.316;6.092;2023-07-20T07:54:20;6.95;;;2.28;;
23952;SDS011;12163;49.316;6.092;2023-07-20T07:56:47;4.30;;;1.92;;
23952;SDS011;12163;49.316;6.092;2023-07-20T07:59:14;4.57;;;2.03;;
23952;SDS011;12163;49.316;6.092;2023-07-20T08:01:40;8.13;;;2.15;;
23952;SDS011;12163;49.316;6.092;2023-07-20T08:04:07;7.15;;;2.28;;
23952;SDS011;12163;49.316;6.092;2023-07-20T08:06:34;8.05;;;2.03;;
23952;SDS011;12163;49.316;6.092;2023-07-20T08:09:01;6.63;;;2.10;;
23952;SDS011;12163;49.316;6.092;2023-07-20T08:11:28;6.88;;;2.20;;
23952;SDS011;12163;49.316;6.092;2023-07-20T08:13:57;8.13;;;2.38;;
23952;SDS011;12163;49.316;6.092;2023-07-20T08:16:23;7.20;;;2.30;;
23952;SDS011;12163;49.316;6.092;2023-07-20T08:18:50;8.82;;;2.08;;
23952;SDS011;12163;49.316;6.092;2023-07-20T08:21:18;7.40;;;2.70;;
23952;SDS011;12163;49.316;6.092;2023-07-20T08:23:45;15.50;;;2.60;;
23952;SDS011;12163;49.316;6.092;2023-07-20T08:26:11;7.60;;;2.28;;
23952;SDS011;12163;49.316;6.092;2023-07-20T08:28:38;10.25;;;2.72;;
23952;SDS011;12163;49.316;6.092;2023-07-20T08:31:05;10.82;;;2.80;;
23952;SDS011;12163;49.316;6.092;2023-07-20T08:33:33;11.07;;;2.00;;
23952;SDS011;12163;49.316;6.092;2023-07-20T08:36:00;10.65;;;2.28;;
23952;SDS011;12163;49.316;6.092;2023-07-20T08:38:28;8.60;;;2.10;;
23952;SDS011;12163;49.316;6.092;2023-07-20T08:40:54;7.65;;;2.83;;
23952;SDS011;12163;49.316;6.092;2023-07-20T08:43:22;9.85;;;2.45;;
23952;SDS011;12163;49.316;6.092;2023-07-20T08:45:55;5.55;;;2.00;;
23952;SDS011;12163;49.316;6.092;2023-07-20T08:48:23;6.68;;;2.58;;
23952;SDS011;12163;49.316;6.092;2023-07-20T08:53:19;9.30;;;2.00;;
23952;SDS011;12163;49.316;6.092;2023-07-20T08:55:48;3.95;;;1.83;;
23952;SDS011;12163;49.316;6.092;2023-07-20T08:58:18;6.78;;;2.40;;
23952;SDS011;12163;49.316;6.092;2023-07-20T09:00:45;6.28;;;2.80;;
23952;SDS011;12163;49.316;6.092;2023-07-20T09:03:13;5.25;;;2.33;;
23952;SDS011;12163;49.316;6.092;2023-07-20T09:05:41;5.82;;;2.40;;
23952;SDS011;12163;49.316;6.092;2023-07-20T09:08:08;8.10;;;1.83;;
23952;SDS011;12163;49.316;6.092;2023-07-20T09:10:34;3.75;;;1.90;;
23952;SDS011;12163;49.316;6.092;2023-07-20T09:13:01;5.18;;;1.95;;
23952;SDS011;12163;49.316;6.092;2023-07-20T09:15:28;4.43;;;1.85;;
23952;SDS011;12163;49.316;6.092;2023-07-20T09:17:55;9.18;;;1.80;;
23952;SDS011;12163;49.316;6.092;2023-07-20T09:20:22;5.53;;;1.80;;
23952;SDS011;12163;49.316;6.092;2023-07-20T09:22:50;5.25;;;1.73;;
23952;SDS011;12163;49.316;6.092;2023-07-20T09:25:19;5.28;;;1.90;;
23952;SDS011;12163;49.316;6.092;2023-07-20T09:27:48;5.55;;;1.98;;
23952;SDS011;12163;49.316;6.092;2023-07-20T09:30:18;4.50;;;1.85;;
23952;SDS011;12163;49.316;6.092;2023-07-20T09:32:48;4.28;;;1.90;;
23952;SDS011;12163;49.316;6.092;2023-07-20T09:35:20;8.55;;;2.00;;
23952;SDS011;12163;49.316;6.092;2023-07-20T09:40:41;7.85;;;2.00;;
23952;SDS011;12163;49.316;6.092;2023-07-20T09:43:11;8.15;;;1.55;;
23952;SDS011;12163;49.316;6.092;2023-07-20T09:45:41;5.03;;;1.60;;
23952;SDS011;12163;49.316;6.092;2023-07-20T09:48:11;4.78;;;1.92;;
23952;SDS011;12163;49.316;6.092;2023-07-20T09:50:43;6.47;;;1.88;;
23952;SDS011;12163;49.316;6.092;2023-07-20T09:53:16;5.32;;;1.80;;
23952;SDS011;12163;49.316;6.092;2023-07-20T09:55:44;5.93;;;1.92;;
23952;SDS011;12163;49.316;6.092;2023-07-20T09:58:11;4.80;;;1.75;;
23952;SDS011;12163;49.316;6.092;2023-07-20T10:00:39;9.05;;;1.90;;
23952;SDS011;12163;49.316;6.092;2023-07-20T10:03:10;5.88;;;1.88;;
23952;SDS011;12163;49.316;6.092;2023-07-20T10:05:58;7.68;;;1.70;;
23952;SDS011;12163;49.316;6.092;2023-07-20T10:08:29;5.47;;;1.70;;
23952;SDS011;12163;49.316;6.092;2023-07-20T10:11:02;11.48;;;1.75;;
23952;SDS011;12163;49.316;6.092;2023-07-20T10:13:30;7.93;;;2.17;;
23952;SDS011;12163;49.316;6.092;2023-07-20T10:16:02;4.95;;;1.70;;
23952;SDS011;12163;49.316;6.092;2023-07-20T10:18:50;5.22;;;2.13;;
23952;SDS011;12163;49.316;6.092;2023-07-20T10:21:21;5.53;;;1.85;;
23952;SDS011;12163;49.316;6.092;2023-07-20T10:23:55;7.70;;;1.85;;
23952;SDS011;12163;49.316;6.092;2023-07-20T10:26:24;8.77;;;1.55;;
23952;SDS011;12163;49.316;6.092;2023-07-20T10:28:52;8.95;;;1.90;;
23952;SDS011;12163;49.316;6.092;2023-07-20T10:31:19;6.07;;;2.00;;
23952;SDS011;12163;49.316;6.092;2023-07-20T10:33:47;4.55;;;1.95;;
23952;SDS011;12163;49.316;6.092;2023-07-20T10:36:14;8.35;;;1.85;;
23952;SDS011;12163;49.316;6.092;2023-07-20T10:41:18;2.55;;;1.50;;
23952;SDS011;12163;49.316;6.092;2023-07-20T10:43:48;5.60;;;1.60;;
23952;SDS011;12163;49.316;6.092;2023-07-20T10:46:16;5.20;;;1.70;;
23952;SDS011;12163;49.316;6.092;2023-07-20T10:49:10;4.28;;;1.63;;
23952;SDS011;12163;49.316;6.092;2023-07-20T10:51:45;4.15;;;1.42;;
23952;SDS011;12163;49.316;6.092;2023-07-20T10:56:44;3.28;;;1.55;;
23952;SDS011;12163;49.316;6.092;2023-07-20T10:59:18;4.10;;;1.50;;
23952;SDS011;12163;49.316;6.092;2023-07-20T11:01:56;6.05;;;1.90;;
23952;SDS011;12163;49.316;6.092;2023-07-20T11:04:43;4.63;;;1.45;;
23952;SDS011;12163;49.316;6.092;2023-07-20T11:07:21;4.97;;;1.50;;
23952;SDS011;12163;49.316;6.092;2023-07-20T11:10:14;2.65;;;1.00;;
23952;SDS011;12163;49.316;6.092;2023-07-20T11:15:47;5.72;;;1.60;;
23952;SDS011;12163;49.316;6.092;2023-07-20T11:20:41;5.22;;;1.20;;
23952;SDS011;12163;49.316;6.092;2023-07-20T11:23:09;4.40;;;1.70;;
23952;SDS011;12163;49.316;6.092;2023-07-20T11:25:39;1.67;;;1.10;;
23952;SDS011;12163;49.316;6.092;2023-07-20T11:28:07;3.95;;;1.00;;
23952;SDS011;12163;49.316;6.092;2023-07-20T11:30:36;4.10;;;1.02;;
23952;SDS011;12163;49.316;6.092;2023-07-20T11:33:05;7.07;;;1.20;;
23952;SDS011;12163;49.316;6.092;2023-07-20T11:38:13;3.88;;;1.40;;
23952;SDS011;12163;49.316;6.092;2023-07-20T11:40:46;3.25;;;0.82;;
23952;SDS011;12163;49.316;6.092;2023-07-20T11:43:13;1.95;;;1.13;;
23952;SDS011;12163;49.316;6.092;2023-07-20T11:45:44;3.70;;;1.13;;
23952;SDS011;12163;49.316;6.092;2023-07-20T11:48:15;4.43;;;1.25;;
23952;SDS011;12163;49.316;6.092;2023-07-20T11:50:43;2.65;;;1.20;;
23952;SDS011;12163;49.316;6.092;2023-07-20T11:53:10;2.35;;;1.15;;
23952;SDS011;12163;49.316;6.092;2023-07-20T11:55:37;3.67;;;1.35;;
23952;SDS011;12163;49.316;6.092;2023-07-20T11:58:06;3.92;;;1.00;;
23952;SDS011;12163;49.316;6.092;2023-07-20T12:00:35;4.63;;;1.40;;
23952;SDS011;12163;49.316;6.092;2023-07-20T12:03:05;1.95;;;1.00;;
23952;SDS011;12163;49.316;6.092;2023-07-20T12:05:37;5.75;;;1.45;;
23952;SDS011;12163;49.316;6.092;2023-07-20T12:08:24;3.65;;;0.98;;
23952;SDS011;12163;49.316;6.092;2023-07-20T12:10:51;6.40;;;1.10;;
23952;SDS011;12163;49.316;6.092;2023-07-20T12:13:18;3.45;;;1.10;;
23952;SDS011;12163;49.316;6.092;2023-07-20T12:15:44;4.60;;;1.10;;
23952;SDS011;12163;49.316;6.092;2023-07-20T12:18:11;2.72;;;1.20;;
23952;SDS011;12163;49.316;6.092;2023-07-20T12:20:38;4.90;;;1.15;;
23952;SDS011;12163;49.316;6.092;2023-07-20T12:23:09;4.45;;;1.10;;
23952;SDS011;12163;49.316;6.092;2023-07-20T12:28:16;4.38;;;1.10;;
23952;SDS011;12163;49.316;6.092;2023-07-20T12:30:46;4.40;;;1.30;;
23952;SDS011;12163;49.316;6.092;2023-07-20T12:33:17;2.30;;;1.20;;
23952;SDS011;12163;49.316;6.092;2023-07-20T12:35:44;4.03;;;1.35;;
23952;SDS011;12163;49.316;6.092;2023-07-20T12:38:11;3.75;;;1.30;;
23952;SDS011;12163;49.316;6.092;2023-07-20T12:40:37;4.85;;;1.30;;
23952;SDS011;12163;49.316;6.092;2023-07-20T12:43:04;3.90;;;1.58;;
23952;SDS011;12163;49.316;6.092;2023-07-20T12:45:31;2.70;;;1.20;;
23952;SDS011;12163;49.316;6.092;2023-07-20T12:47:58;4.45;;;1.08;;
23952;SDS011;12163;49.316;6.092;2023-07-20T12:50:25;3.45;;;1.20;;
23952;SDS011;12163;49.316;6.092;2023-07-20T12:52:51;2.40;;;1.23;;
23952;SDS011;12163;49.316;6.092;2023-07-20T12:55:18;3.90;;;0.93;;
23952;SDS011;12163;49.316;6.092;2023-07-20T12:57:45;3.70;;;1.20;;
23952;SDS011;12163;49.316;6.092;2023-07-20T13:00:13;4.35;;;1.23;;
23952;SDS011;12163;49.316;6.092;2023-07-20T13:02:41;3.22;;;1.10;;
23952;SDS011;12163;49.316;6.092;2023-07-20T13:05:08;5.05;;;1.45;;
23952;SDS011;12163;49.316;6.092;2023-07-20T13:07:36;2.13;;;1.05;;
23952;SDS011;12163;49.316;6.092;2023-07-20T13:12:35;2.75;;;1.00;;
23952;SDS011;12163;49.316;6.092;2023-07-20T13:15:03;7.75;;;1.30;;
23952;SDS011;12163;49.316;6.092;2023-07-20T13:17:34;3.63;;;1.48;;
23952;SDS011;12163;49.316;6.092;2023-07-20T13:20:02;1.73;;;1.10;;
23952;SDS011;12163;49.316;6.092;2023-07-20T13:22:31;3.55;;;1.50;;
23952;SDS011;12163;49.316;6.092;2023-07-20T13:27:24;4.28;;;1.15;;
23952;SDS011;12163;49.316;6.092;2023-07-20T13:29:52;2.40;;;1.13;;
23952;SDS011;12163;49.316;6.092;2023-07-20T13:32:19;6.00;;;1.48;;
23952;SDS011;12163;49.316;6.092;2023-07-20T13:34:46;3.70;;;1.20;;
23952;SDS011;12163;49.316;6.092;2023-07-20T13:37:14;5.78;;;1.25;;
23952;SDS011;12163;49.316;6.092;2023-07-20T13:39:42;2.40;;;1.15;;
23952;SDS011;12163;49.316;6.092;2023-07-20T13:42:10;3.30;;;1.10;;
23952;SDS011;12163;49.316;6.092;2023-07-20T13:44:38;2.75;;;1.20;;
23952;SDS011;12163;49.316;6.092;2023-07-20T13:47:05;4.30;;;1.40;;
23952;SDS011;12163;49.316;6.092;2023-07-20T13:49:35;2.70;;;1.20;;
23952;SDS011;12163;49.316;6.092;2023-07-20T13:52:12;3.53;;;1.40;;
23952;SDS011;12163;49.316;6.092;2023-07-20T13:54:41;2.85;;;1.10;;
23952;SDS011;12163;49.316;6.092;2023-07-20T13:57:11;3.45;;;1.20;;
23952;SDS011;12163;49.316;6.092;2023-07-20T13:59:37;4.43;;;1.35;;
23952;SDS011;12163;49.316;6.092;2023-07-20T14:02:04;7.70;;;1.30;;
23952;SDS011;12163;49.316;6.092;2023-07-20T14:04:34;3.45;;;1.25;;
23952;SDS011;12163;49.316;6.092;2023-07-20T14:07:02;4.00;;;1.20;;
23952;SDS011;12163;49.316;6.092;2023-07-20T14:09:29;2.45;;;1.23;;
23952;SDS011;12163;49.316;6.092;2023-07-20T14:11:55;4.15;;;1.45;;
23952;SDS011;12163;49.316;6.092;2023-07-20T14:14:25;5.10;;;1.38;;
23952;SDS011;12163;49.316;6.092;2023-07-20T14:16:51;1.58;;;1.20;;
23952;SDS011;12163;49.316;6.092;2023-07-20T14:19:18;5.18;;;1.40;;
23952;SDS011;12163;49.316;6.092;2023-07-20T14:21:45;2.58;;;1.00;;
23952;SDS011;12163;49.316;6.092;2023-07-20T14:24:11;2.80;;;1.17;;
23952;SDS011;12163;49.316;6.092;2023-07-20T14:26:38;2.58;;;1.00;;
23952;SDS011;12163;49.316;6.092;2023-07-20T14:29:09;5.53;;;1.60;;
23952;SDS011;12163;49.316;6.092;2023-07-20T14:31:36;3.47;;;1.10;;
23952;SDS011;12163;49.316;6.092;2023-07-20T14:34:02;5.45;;;1.10;;
23952;SDS011;12163;49.316;6.092;2023-07-20T14:36:30;4.70;;;1.35;;
23952;SDS011;12163;49.316;6.092;2023-07-20T14:38:59;1.58;;;1.00;;
23952;SDS011;12163;49.316;6.092;2023-07-20T14:41:26;3.67;;;1.35;;
23952;SDS011;12163;49.316;6.092;2023-07-20T14:43:53;5.28;;;1.35;;
23952;SDS011;12163;49.316;6.092;2023-07-20T14:46:19;4.35;;;1.20;;
23952;SDS011;12163;49.316;6.092;2023-07-20T14:48:47;4.28;;;1.40;;
23952;SDS011;12163;49.316;6.092;2023-07-20T14:51:14;4.88;;;1.40;;
23952;SDS011;12163;49.316;6.092;2023-07-20T14:53:41;3.45;;;1.33;;
23952;SDS011;12163;49.316;6.092;2023-07-20T14:56:08;8.57;;;1.40;;
23952;SDS011;12163;49.316;6.092;2023-07-20T14:58:34;5.80;;;1.30;;
23952;SDS011;12163;49.316;6.092;2023-07-20T15:01:01;3.97;;;1.60;;
23952;SDS011;12163;49.316;6.092;2023-07-20T15:03:29;11.63;;;1.83;;
23952;SDS011;12163;49.316;6.092;2023-07-20T15:05:57;4.75;;;1.35;;
23952;SDS011;12163;49.316;6.092;2023-07-20T15:08:24;2.58;;;1.35;;
23952;SDS011;12163;49.316;6.092;2023-07-20T15:10:51;3.22;;;1.20;;
23952;SDS011;12163;49.316;6.092;2023-07-20T15:13:17;3.05;;;1.27;;
23952;SDS011;12163;49.316;6.092;2023-07-20T15:15:44;5.18;;;1.50;;
23952;SDS011;12163;49.316;6.092;2023-07-20T15:18:10;3.72;;;1.42;;
23952;SDS011;12163;49.316;6.092;2023-07-20T15:20:37;3.55;;;1.10;;
23952;SDS011;12163;49.316;6.092;2023-07-20T15:23:04;3.00;;;1.27;;
23952;SDS011;12163;49.316;6.092;2023-07-20T15:25:31;3.13;;;1.20;;
23952;SDS011;12163;49.316;6.092;2023-07-20T15:27:57;3.13;;;1.35;;
23952;SDS011;12163;49.316;6.092;2023-07-20T15:30:24;2.90;;;1.10;;
23952;SDS011;12163;49.316;6.092;2023-07-20T15:32:54;1.50;;;1.10;;
23952;SDS011;12163;49.316;6.092;2023-07-20T15:35:25;3.67;;;1.15;;
23952;SDS011;12163;49.316;6.092;2023-07-20T15:37:52;2.00;;;1.10;;
23952;SDS011;12163;49.316;6.092;2023-07-20T15:40:19;2.15;;;1.20;;
23952;SDS011;12163;49.316;6.092;2023-07-20T15:42:45;2.78;;;1.20;;
23952;SDS011;12163;49.316;6.092;2023-07-20T15:45:17;3.90;;;1.23;;
23952;SDS011;12163;49.316;6.092;2023-07-20T15:47:43;5.65;;;1.40;;
23952;SDS011;12163;49.316;6.092;2023-07-20T15:50:10;2.05;;;1.08;;
23952;SDS011;12163;49.316;6.092;2023-07-20T15:52:39;4.95;;;1.40;;
23952;SDS011;12163;49.316;6.092;2023-07-20T15:55:08;2.22;;;1.10;;
23952;SDS011;12163;49.316;6.092;2023-07-20T15:57:35;4.47;;;1.33;;
23952;SDS011;12163;49.316;6.092;2023-07-20T16:00:02;2.13;;;1.25;;
23952;SDS011;12163;49.316;6.092;2023-07-20T16:02:36;3.20;;;1.30;;
23952;SDS011;12163;49.316;6.092;2023-07-20T16:05:05;3.03;;;1.45;;
23952;SDS011;12163;49.316;6.092;2023-07-20T16:07:35;2.72;;;1.20;;
23952;SDS011;12163;49.316;6.092;2023-07-20T16:10:02;6.85;;;1.60;;
23952;SDS011;12163;49.316;6.092;2023-07-20T16:12:29;3.03;;;1.42;;
23952;SDS011;12163;49.316;6.092;2023-07-20T16:14:57;2.92;;;1.20;;
23952;SDS011;12163;49.316;6.092;2023-07-20T16:17:27;5.93;;;1.30;;